Terminal Aerodrome Forecast
Issued by NWS Twin Cities, MN

Home | Current Version | Previous Version | Graphics & Text | Print | Product List | Glossary On
Versions: 1 2 3 4 5 6 7 8 9 10 11 12 13 14 15 16
933
FTUS43 KMPX 130520
TAFSTC
TAF
KSTC 130520Z 1306/1406 31009KT P6SM SKC
     FM130900 31002KT P6SM SKC
     FM131100 VRB02KT P6SM FEW250
     FM131800 15007KT P6SM SCT100 BKN250
     FM140200 14010KT P6SM OVC050=

USA.gov is the U.S. government's official web portal to all federal, state and local government web resources and services.